createdAt,value
2022-12-08T00:02:05.953Z,6.03
2022-12-08T00:05:27.896Z,3.72
2022-12-08T00:08:48.147Z,4.85
2022-12-08T00:11:51.555Z,4.95
2022-12-08T00:14:54.956Z,6.00
2022-12-08T00:17:58.968Z,6.70
2022-12-08T00:21:02.202Z,6.32
2022-12-08T00:24:04.915Z,7.88
2022-12-08T00:27:07.967Z,6.55
2022-12-08T00:30:11.036Z,7.97
2022-12-08T00:33:15.003Z,5.72
2022-12-08T00:36:17.652Z,8.32
2022-12-08T00:39:20.577Z,5.90
2022-12-08T00:42:23.181Z,6.00
2022-12-08T00:45:26.001Z,6.82
2022-12-08T00:48:29.998Z,7.00
2022-12-08T00:51:32.933Z,5.47
2022-12-08T00:54:35.508Z,6.38
2022-12-08T00:57:38.093Z,7.93
2022-12-08T01:00:41.459Z,6.88
2022-12-08T01:03:45.669Z,6.07
2022-12-08T01:06:48.496Z,6.85
2022-12-08T01:09:51.132Z,5.28
2022-12-08T01:12:53.735Z,6.28
2022-12-08T01:15:56.392Z,5.30
2022-12-08T01:19:01.059Z,7.53
2022-12-08T01:22:03.608Z,6.50
2022-12-08T01:25:06.601Z,5.88
2022-12-08T01:28:09.207Z,7.25
2022-12-08T01:31:13.294Z,5.72
2022-12-08T01:34:17.299Z,7.90
2022-12-08T01:37:19.937Z,8.10
2022-12-08T01:40:22.523Z,4.63
2022-12-08T01:43:25.074Z,6.85
2022-12-08T01:46:28.723Z,5.53
2022-12-08T01:49:34.009Z,7.80
2022-12-08T01:52:38.851Z,5.43
2022-12-08T01:55:43.364Z,5.75
2022-12-08T01:58:47.549Z,6.15
2022-12-08T02:01:50.336Z,7.90
2022-12-08T02:04:54.285Z,8.10
2022-12-08T02:07:58.066Z,9.90
2022-12-08T02:11:00.657Z,7.55
2022-12-08T02:14:05.124Z,5.35
2022-12-08T02:17:13.407Z,6.32
2022-12-08T02:20:31.915Z,5.20
2022-12-08T02:23:37.857Z,6.50
2022-12-08T02:27:07.351Z,7.63
2022-12-08T02:30:15.920Z,7.68
2022-12-08T02:33:34.165Z,10.77
2022-12-08T02:36:40.226Z,4.72
2022-12-08T02:39:45.786Z,5.38
2022-12-08T02:42:49.780Z,6.00
2022-12-08T02:45:54.035Z,6.55
2022-12-08T02:48:56.896Z,4.38
2022-12-08T02:52:23.678Z,3.30
2022-12-08T02:55:29.036Z,4.25
2022-12-08T02:58:41.224Z,3.83
2022-12-08T03:01:50.261Z,7.30
2022-12-08T03:04:56.548Z,4.20
2022-12-08T03:08:03.449Z,4.30
2022-12-08T03:11:10.674Z,4.55
2022-12-08T03:14:15.474Z,7.10
2022-12-08T03:17:19.639Z,4.03
2022-12-08T03:20:22.784Z,3.88
2022-12-08T03:23:25.650Z,3.75
2022-12-08T03:26:31.555Z,6.88
2022-12-08T03:29:34.652Z,5.32
2022-12-08T03:32:39.761Z,3.60
2022-12-08T03:35:43.253Z,3.25
2022-12-08T03:38:46.833Z,5.95
2022-12-08T03:41:50.760Z,3.65
2022-12-08T03:44:53.451Z,4.22
2022-12-08T03:47:56.628Z,4.82
2022-12-08T03:50:59.278Z,5.25
2022-12-08T03:54:01.903Z,4.47
2022-12-08T03:57:06.101Z,7.85
2022-12-08T04:00:10.174Z,5.28
2022-12-08T04:03:12.844Z,6.05
2022-12-08T04:06:15.607Z,5.03
2022-12-08T04:09:18.249Z,5.10
2022-12-08T04:12:22.339Z,4.05
2022-12-08T04:15:24.937Z,3.92
2022-12-08T04:18:27.631Z,4.35
2022-12-08T04:21:30.267Z,3.40
2022-12-08T04:24:32.859Z,4.93
2022-12-08T04:27:37.003Z,3.17
2022-12-08T04:30:40.070Z,4.35
2022-12-08T04:33:42.901Z,5.93
2022-12-08T04:36:45.547Z,3.28
2022-12-08T04:39:48.226Z,6.82
2022-12-08T04:42:52.251Z,3.17
2022-12-08T04:45:54.914Z,3.00
2022-12-08T04:48:57.491Z,5.68
2022-12-08T04:51:59.993Z,3.30
2022-12-08T04:55:02.868Z,3.55
2022-12-08T04:58:06.992Z,3.25
2022-12-08T05:01:09.573Z,3.05
2022-12-08T05:04:12.202Z,6.10
2022-12-08T05:07:15.059Z,3.17
2022-12-08T05:10:17.789Z,12.98
2022-12-08T05:13:21.696Z,2.88
2022-12-08T05:16:24.330Z,1.98
2022-12-08T05:19:26.977Z,3.17
2022-12-08T05:22:29.547Z,2.22
2022-12-08T05:25:32.116Z,2.20
2022-12-08T05:28:44.038Z,3.47
2022-12-08T05:31:46.981Z,2.45
2022-12-08T05:34:49.584Z,6.10
2022-12-08T05:37:53.816Z,2.10
2022-12-08T05:40:56.369Z,2.65
2022-12-08T05:44:00.327Z,2.03
2022-12-08T05:47:02.968Z,2.33
2022-12-08T05:50:06.738Z,2.50
2022-12-08T05:53:09.557Z,1.95
2022-12-08T05:56:12.429Z,2.78
2022-12-08T05:59:16.618Z,4.80
2022-12-08T06:02:19.271Z,2.03
2022-12-08T06:05:22.002Z,2.67
2022-12-08T06:08:24.735Z,2.72
2022-12-08T06:11:28.734Z,2.30
2022-12-08T06:14:32.610Z,2.38
2022-12-08T06:17:35.432Z,2.63
2022-12-08T06:20:37.931Z,3.03
2022-12-08T06:23:40.458Z,2.92
2022-12-08T06:26:43.283Z,3.88
2022-12-08T06:29:47.204Z,2.97
2022-12-08T06:32:49.749Z,2.10
2022-12-08T06:35:52.391Z,2.78
2022-12-08T06:38:55.584Z,2.17
2022-12-08T06:42:15.644Z,2.80
2022-12-08T06:45:19.803Z,2.15
2022-12-08T06:48:22.447Z,2.53
2022-12-08T06:51:25.366Z,5.88
2022-12-08T06:54:28.026Z,2.95
2022-12-08T06:57:30.551Z,2.83
2022-12-08T07:00:34.478Z,3.35
2022-12-08T07:03:37.859Z,2.05
2022-12-08T07:06:40.645Z,2.38
2022-12-08T07:09:43.250Z,3.20
2022-12-08T07:12:46.423Z,3.65
2022-12-08T07:15:50.366Z,2.00
2022-12-08T07:18:52.882Z,3.17
2022-12-08T07:21:55.631Z,2.95
2022-12-08T07:24:58.126Z,2.17
2022-12-08T07:28:00.764Z,2.47
2022-12-08T07:31:05.166Z,2.08
2022-12-08T07:34:07.839Z,2.75
2022-12-08T07:37:10.411Z,3.45
2022-12-08T07:40:13.630Z,4.13
2022-12-08T07:43:19.855Z,4.57
2022-12-08T07:46:25.478Z,2.67
2022-12-08T07:49:29.030Z,3.17
2022-12-08T07:52:31.523Z,3.40
2022-12-08T07:55:35.083Z,3.60
2022-12-08T07:58:37.966Z,3.97
2022-12-08T08:01:45.413Z,4.63
2022-12-08T08:04:51.364Z,3.30
2022-12-08T08:07:54.359Z,4.47
2022-12-08T08:10:59.077Z,3.40
2022-12-08T08:14:06.621Z,2.85
2022-12-08T08:17:11.178Z,3.15
2022-12-08T08:20:14.820Z,4.45
2022-12-08T08:23:17.580Z,3.67
2022-12-08T08:26:20.314Z,2.65
2022-12-08T08:29:22.948Z,3.13
2022-12-08T08:32:26.952Z,2.45
2022-12-08T08:35:29.501Z,2.15
2022-12-08T08:38:32.042Z,2.97
2022-12-08T08:41:35.338Z,3.28
2022-12-08T08:44:38.841Z,4.82
2022-12-08T08:47:42.843Z,4.35
2022-12-08T08:50:45.483Z,3.63
2022-12-08T08:53:48.474Z,3.20
2022-12-08T08:56:51.122Z,3.45
2022-12-08T08:59:53.718Z,2.67
2022-12-08T09:02:57.696Z,4.38
2022-12-08T09:06:00.768Z,5.18
2022-12-08T09:09:03.496Z,2.75
2022-12-08T09:12:06.534Z,4.95
2022-12-08T09:15:09.432Z,2.17
2022-12-08T09:18:13.346Z,3.65
2022-12-08T09:21:22.246Z,2.53
2022-12-08T09:24:24.822Z,1.80
2022-12-08T09:27:27.535Z,1.85
2022-12-08T09:30:30.066Z,2.47
2022-12-08T09:33:34.766Z,2.42
2022-12-08T09:36:37.385Z,2.92
2022-12-08T09:39:41.265Z,2.95
2022-12-08T09:42:45.412Z,2.83
2022-12-08T09:45:48.802Z,3.25
2022-12-08T09:48:55.852Z,4.13
2022-12-08T09:51:58.651Z,8.52
2022-12-08T09:55:03.539Z,4.38
2022-12-08T09:58:08.535Z,4.88
2022-12-08T10:01:11.998Z,4.35
2022-12-08T10:04:21.191Z,6.53
2022-12-08T10:07:27.160Z,9.10
2022-12-08T10:10:33.302Z,9.60
2022-12-08T10:13:38.718Z,5.72
2022-12-08T10:16:42.836Z,5.55
2022-12-08T10:19:47.906Z,4.57
2022-12-08T10:22:51.895Z,4.18
2022-12-08T10:25:58.881Z,4.18
2022-12-08T10:29:02.948Z,2.88
2022-12-08T10:32:10.847Z,3.10
2022-12-08T10:35:15.884Z,3.38
2022-12-08T10:38:20.527Z,3.53
2022-12-08T10:41:23.997Z,3.30
2022-12-08T10:44:26.762Z,3.28
2022-12-08T10:47:30.288Z,2.60
2022-12-08T10:50:35.313Z,2.92
2022-12-08T10:53:45.815Z,5.60
2022-12-08T10:56:54.455Z,2.75
2022-12-08T10:59:57.284Z,3.13
2022-12-08T11:03:01.145Z,2.45
2022-12-08T11:06:13.153Z,2.63
2022-12-08T11:09:36.105Z,1.95
2022-12-08T11:12:38.713Z,1.35
2022-12-08T11:15:41.492Z,1.27
2022-12-08T11:18:46.927Z,1.50
2022-12-08T11:21:51.008Z,2.10
2022-12-08T11:25:01.994Z,2.25
2022-12-08T11:28:06.501Z,1.55
2022-12-08T11:31:15.879Z,1.80
2022-12-08T11:34:20.912Z,1.80
2022-12-08T11:37:32.926Z,1.63
2022-12-08T11:40:39.221Z,2.45
2022-12-08T11:43:47.014Z,3.97
2022-12-08T11:46:52.493Z,1.85
2022-12-08T11:49:56.966Z,4.30
2022-12-08T11:53:02.366Z,5.45
2022-12-08T11:56:07.855Z,3.83
2022-12-08T11:59:16.482Z,3.55
2022-12-08T12:02:19.968Z,5.35
2022-12-08T12:05:33.681Z,4.38
2022-12-08T12:08:55.794Z,4.68
2022-12-08T12:12:19.831Z,6.00
2022-12-08T12:15:32.635Z,5.28
2022-12-08T12:18:38.604Z,5.70
2022-12-08T12:21:43.351Z,5.30
2022-12-08T12:24:48.809Z,13.90
2022-12-08T12:27:57.206Z,6.50
2022-12-08T12:31:05.738Z,12.30
2022-12-08T12:34:09.471Z,6.93
2022-12-08T12:37:13.958Z,8.23
2022-12-08T12:40:22.257Z,8.20
2022-12-08T12:43:32.189Z,8.20
2022-12-08T12:46:55.669Z,8.95
2022-12-08T12:50:21.541Z,7.82
2022-12-08T12:53:43.109Z,7.32
2022-12-08T12:56:55.337Z,9.35
2022-12-08T13:00:10.879Z,8.25
2022-12-08T13:03:15.393Z,9.02
2022-12-08T13:06:24.584Z,4.95
2022-12-08T13:09:33.712Z,4.47
2022-12-08T13:12:38.135Z,5.45
2022-12-08T13:15:52.994Z,3.95
2022-12-08T13:18:58.327Z,5.03
2022-12-08T13:22:04.561Z,5.57
2022-12-08T13:25:25.924Z,4.72
2022-12-08T13:28:30.860Z,5.40
2022-12-08T13:31:41.668Z,4.47
2022-12-08T13:34:50.864Z,6.80
2022-12-08T13:37:55.455Z,6.63
2022-12-08T13:40:58.650Z,6.45
2022-12-08T13:47:34.223Z,6.00
2022-12-08T13:52:25.874Z,5.40
2022-12-08T13:55:03.642Z,5.95
2022-12-08T13:57:34.466Z,5.68
2022-12-08T14:00:39.158Z,4.82
2022-12-08T14:04:11.709Z,6.68
2022-12-08T14:07:10.454Z,5.45
2022-12-08T14:10:17.237Z,5.15
2022-12-08T14:13:19.933Z,4.32
2022-12-08T14:16:29.374Z,4.00
2022-12-08T14:19:34.207Z,5.72
2022-12-08T14:22:37.934Z,5.63
2022-12-08T14:25:47.970Z,4.90
2022-12-08T14:28:50.676Z,5.57
2022-12-08T14:31:55.357Z,3.75
2022-12-08T14:34:59.671Z,6.85
2022-12-08T14:38:03.165Z,3.85
2022-12-08T14:41:07.275Z,5.22
2022-12-08T14:44:20.156Z,3.90
2022-12-08T14:47:24.278Z,6.30
2022-12-08T14:50:44.420Z,7.72
2022-12-08T14:53:48.831Z,5.53
2022-12-08T14:56:52.746Z,5.68
2022-12-08T14:59:55.785Z,5.32
2022-12-08T15:02:59.968Z,4.63
2022-12-08T15:06:05.009Z,3.85
2022-12-08T15:09:16.860Z,5.00
2022-12-08T15:12:26.388Z,5.57
2022-12-08T15:15:30.753Z,6.72
2022-12-08T15:18:38.081Z,6.85
2022-12-08T15:21:41.151Z,7.40
2022-12-08T15:24:43.744Z,12.98
2022-12-08T15:27:50.525Z,18.83
2022-12-08T15:30:53.793Z,16.50
2022-12-08T15:33:57.730Z,11.85
2022-12-08T15:37:00.241Z,9.35
2022-12-08T15:40:05.888Z,12.02
2022-12-08T15:43:10.875Z,10.77
2022-12-08T15:46:14.268Z,13.68
2022-12-08T15:49:19.800Z,12.70
2022-12-08T15:52:23.752Z,9.80
2022-12-08T15:55:26.412Z,8.00
2022-12-08T15:58:52.908Z,7.55
2022-12-08T16:01:51.916Z,7.65
2022-12-08T16:12:09.011Z,7.97
2022-12-08T16:18:36.980Z,5.93
2022-12-08T16:22:23.800Z,8.95
2022-12-08T16:25:17.641Z,10.45
2022-12-08T16:28:52.882Z,9.85
2022-12-08T16:31:44.178Z,11.80
2022-12-08T16:34:46.780Z,14.02
2022-12-08T16:37:50.850Z,18.45
2022-12-08T16:41:10.940Z,20.08
2022-12-08T16:44:13.464Z,15.27
2022-12-08T16:47:16.204Z,19.80
2022-12-08T16:50:19.770Z,17.85
2022-12-08T16:53:37.257Z,16.30
2022-12-08T16:56:39.831Z,15.50
2022-12-08T16:59:42.699Z,14.90
2022-12-08T17:02:46.364Z,16.50
2022-12-08T17:05:49.317Z,13.20
2022-12-08T17:09:07.113Z,14.50
2022-12-08T17:12:10.528Z,14.73
2022-12-08T17:15:16.351Z,16.85
2022-12-08T17:18:19.347Z,15.15
2022-12-08T17:21:22.135Z,12.57
2022-12-08T17:24:29.409Z,14.18
2022-12-08T17:27:32.482Z,17.08
2022-12-08T17:30:35.338Z,11.65
2022-12-08T17:33:38.095Z,15.65
2022-12-08T17:36:40.875Z,13.15
2022-12-08T17:39:44.977Z,14.27
2022-12-08T17:42:47.606Z,19.20
2022-12-08T17:45:50.473Z,13.13
2022-12-08T17:48:54.169Z,14.52
2022-12-08T17:51:57.927Z,15.73
2022-12-08T17:55:02.097Z,13.10
2022-12-08T17:58:05.163Z,14.82
2022-12-08T18:01:09.557Z,15.27
2022-12-08T18:04:17.770Z,21.02
2022-12-08T18:07:20.688Z,16.92
2022-12-08T18:10:25.104Z,20.88
2022-12-08T18:13:30.902Z,16.42
2022-12-08T18:16:33.468Z,22.27
2022-12-08T18:19:36.071Z,23.30
2022-12-08T18:22:38.886Z,17.70
2022-12-08T18:25:43.073Z,15.10
2022-12-08T18:28:45.642Z,18.25
2022-12-08T18:31:48.547Z,23.48
2022-12-08T18:34:51.230Z,21.67
2022-12-08T18:37:53.981Z,17.60
2022-12-08T18:41:04.444Z,19.38
2022-12-08T18:44:08.367Z,18.23
2022-12-08T18:47:10.937Z,14.90
2022-12-08T18:50:14.154Z,14.15
2022-12-08T18:53:16.784Z,16.05
2022-12-08T18:56:23.438Z,14.85
2022-12-08T18:59:26.062Z,16.25
2022-12-08T19:02:29.282Z,14.65
2022-12-08T19:05:31.925Z,15.20
2022-12-08T19:08:34.944Z,15.52
2022-12-08T19:11:39.665Z,14.80
2022-12-08T19:14:42.573Z,18.83
2022-12-08T19:17:45.263Z,17.25
2022-12-08T19:20:47.989Z,15.98
2022-12-08T19:23:51.612Z,22.55
2022-12-08T19:26:55.589Z,16.98
2022-12-08T19:29:58.360Z,15.88
2022-12-08T19:33:01.085Z,18.00
2022-12-08T19:36:05.611Z,14.82
2022-12-08T19:39:40.159Z,15.25
2022-12-08T19:43:01.801Z,13.90
2022-12-08T19:46:04.636Z,16.52
2022-12-08T19:49:07.411Z,12.68
2022-12-08T19:52:10.274Z,19.60
2022-12-08T19:55:13.682Z,18.08
2022-12-08T19:58:17.748Z,16.88
2022-12-08T20:01:20.516Z,17.55
2022-12-08T20:04:23.711Z,19.10
2022-12-08T20:07:26.363Z,16.98
2022-12-08T20:10:30.171Z,15.52
2022-12-08T20:13:45.505Z,16.42
2022-12-08T20:16:48.484Z,15.90
2022-12-08T20:19:51.291Z,16.40
2022-12-08T20:22:54.087Z,16.60
2022-12-08T20:25:56.708Z,19.70
2022-12-08T20:29:00.859Z,15.77
2022-12-08T20:32:03.821Z,14.20
2022-12-08T20:35:07.180Z,15.23
2022-12-08T20:38:10.181Z,14.20
2022-12-08T20:41:12.946Z,12.77
2022-12-08T20:44:17.858Z,14.70
2022-12-08T20:47:20.750Z,14.65
2022-12-08T20:50:23.608Z,20.38
2022-12-08T20:53:26.231Z,14.68
2022-12-08T20:56:29.097Z,15.45
2022-12-08T20:59:33.214Z,18.15
2022-12-08T21:02:36.246Z,19.70
2022-12-08T21:05:40.406Z,19.95
2022-12-08T21:08:44.345Z,21.30
2022-12-08T21:11:47.216Z,14.88
2022-12-08T21:14:51.504Z,15.13
2022-12-08T21:17:54.855Z,16.38
2022-12-08T21:21:01.950Z,19.48
2022-12-08T21:24:05.180Z,19.35
2022-12-08T21:27:08.121Z,20.50
2022-12-08T21:30:13.038Z,21.45
2022-12-08T21:33:15.729Z,21.70
2022-12-08T21:36:20.488Z,19.35
2022-12-08T21:39:23.214Z,17.52
2022-12-08T21:42:43.462Z,18.65
2022-12-08T21:45:47.648Z,17.20
2022-12-08T21:48:50.320Z,18.40
2022-12-08T21:51:53.438Z,17.55
2022-12-08T21:54:56.469Z,16.27
2022-12-08T21:58:00.749Z,19.13
2022-12-08T22:01:13.262Z,16.15
2022-12-08T22:04:21.392Z,16.50
2022-12-08T22:07:24.744Z,18.63
2022-12-08T22:10:27.398Z,16.02
2022-12-08T22:13:30.087Z,15.48
2022-12-08T22:16:34.446Z,15.27
2022-12-08T22:19:37.198Z,15.10
2022-12-08T22:22:40.080Z,18.10
2022-12-08T22:25:43.025Z,17.52
2022-12-08T22:28:45.731Z,18.23
2022-12-08T22:31:50.026Z,15.93
2022-12-08T22:34:52.971Z,17.77
2022-12-08T22:37:55.782Z,16.23
2022-12-08T22:40:58.637Z,15.75
2022-12-08T22:44:02.449Z,15.18
2022-12-08T22:47:06.929Z,12.55
2022-12-08T22:50:10.381Z,14.80
2022-12-08T22:53:13.992Z,12.77
2022-12-08T22:56:17.684Z,13.52
2022-12-08T22:59:20.558Z,14.98
2022-12-08T23:02:24.870Z,14.55
2022-12-08T23:05:27.736Z,11.95
2022-12-08T23:08:30.711Z,16.13
2022-12-08T23:11:33.305Z,17.48
2022-12-08T23:14:36.180Z,14.20
2022-12-08T23:17:40.447Z,15.27
2022-12-08T23:20:43.387Z,15.25
2022-12-08T23:23:46.170Z,14.65
2022-12-08T23:26:49.235Z,18.67
2022-12-08T23:29:52.258Z,15.30
2022-12-08T23:32:57.340Z,13.27
2022-12-08T23:36:00.007Z,16.85
2022-12-08T23:39:02.707Z,14.65
2022-12-08T23:42:05.767Z,14.55
2022-12-08T23:45:09.607Z,13.70
2022-12-08T23:48:13.668Z,17.48
2022-12-08T23:51:16.820Z,19.77
2022-12-08T23:54:19.584Z,15.30
2022-12-08T23:57:22.535Z,15.98
